createdAt,value
2022-10-02T00:01:24.558Z,99901.73
2022-10-02T00:04:15.570Z,99900.13
2022-10-02T00:07:09.427Z,99903.64
2022-10-02T00:10:01.661Z,99902.11
2022-10-02T00:12:56.025Z,99903.88
2022-10-02T00:15:46.090Z,99905.98
2022-10-02T00:18:36.981Z,99909.02
2022-10-02T00:22:02.907Z,99906.84
2022-10-02T00:24:58.348Z,99907.05
2022-10-02T00:28:06.707Z,99908.33
2022-10-02T00:31:11.433Z,99914.11
2022-10-02T00:34:15.262Z,99917.15
2022-10-02T00:37:10.023Z,99917.64
2022-10-02T00:40:17.628Z,99912.87
2022-10-02T00:43:13.667Z,99911.23
2022-10-02T00:46:16.562Z,99916.08
2022-10-02T00:49:31.906Z,99916.42
2022-10-02T00:52:45.501Z,99918.03
2022-10-02T00:55:56.025Z,99918.14
2022-10-02T00:59:02.693Z,99916.17
2022-10-02T01:01:55.494Z,99920.92
2022-10-02T01:04:47.513Z,99922.86
2022-10-02T01:07:39.969Z,99929.20
2022-10-02T01:10:30.333Z,99934.09
2022-10-02T01:13:20.362Z,99939.02
2022-10-02T01:16:13.616Z,99943.13
2022-10-02T01:19:03.670Z,99944.27
2022-10-02T01:21:58.820Z,99946.94
2022-10-02T01:24:50.532Z,99949.45
2022-10-02T01:27:40.594Z,99953.16
2022-10-02T01:30:30.858Z,99962.10
2022-10-02T01:33:21.189Z,99961.04
2022-10-02T01:36:11.674Z,99964.55
2022-10-02T01:39:01.896Z,99964.08
2022-10-02T01:41:54.967Z,99968.64
2022-10-02T01:44:45.060Z,99968.80
2022-10-02T01:47:41.381Z,99969.71
2022-10-02T01:50:38.610Z,99969.50
2022-10-02T01:53:33.055Z,99969.50
2022-10-02T01:56:27.683Z,99973.61
2022-10-02T01:59:25.533Z,99976.69
2022-10-02T02:02:24.062Z,99982.78
2022-10-02T02:05:19.835Z,99985.98
2022-10-02T02:08:13.821Z,99988.98
2022-10-02T02:11:11.272Z,99990.58
2022-10-02T02:14:04.017Z,99990.58
2022-10-02T02:16:56.816Z,99993.09
2022-10-02T02:19:48.438Z,99996.73
2022-10-02T02:22:41.140Z,99993.95
2022-10-02T02:25:33.750Z,99998.17
2022-10-02T02:28:23.819Z,100000.98
2022-10-02T02:31:14.566Z,100001.22
2022-10-02T02:34:07.646Z,100003.89
2022-10-02T02:37:02.710Z,100004.59
2022-10-02T02:39:53.843Z,100008.33
2022-10-02T02:42:46.225Z,100012.02
2022-10-02T02:45:38.869Z,100011.60
2022-10-02T02:48:31.328Z,100012.72
2022-10-02T02:51:23.735Z,100016.28
2022-10-02T02:54:17.762Z,100019.14
2022-10-02T02:57:07.998Z,100019.80
2022-10-02T02:59:58.309Z,100024.89
2022-10-02T03:02:50.003Z,100024.48
2022-10-02T03:05:43.519Z,100024.12
2022-10-02T03:08:35.928Z,100031.05
2022-10-02T03:11:34.231Z,100032.16
2022-10-02T03:14:40.112Z,100035.45
2022-10-02T03:17:35.547Z,100039.16
2022-10-02T03:20:31.036Z,100038.21
2022-10-02T03:23:27.456Z,100043.60
2022-10-02T03:26:19.801Z,100046.65
2022-10-02T03:29:16.589Z,100047.02
2022-10-02T03:32:08.096Z,100047.51
2022-10-02T03:34:58.364Z,100046.86
2022-10-02T03:37:50.760Z,100047.19
2022-10-02T03:40:40.806Z,100046.33
2022-10-02T03:43:31.491Z,100045.27
2022-10-02T03:46:21.554Z,100047.60
2022-10-02T03:49:11.849Z,100050.04
2022-10-02T03:52:02.591Z,100051.76
2022-10-02T03:54:57.208Z,100046.91
2022-10-02T03:57:47.300Z,100053.66
2022-10-02T04:00:38.889Z,100049.66
2022-10-02T04:03:32.941Z,100056.45
2022-10-02T04:06:26.642Z,100058.83
2022-10-02T04:09:20.610Z,100062.09
2022-10-02T04:12:12.841Z,100059.45
2022-10-02T04:15:06.170Z,100058.27
2022-10-02T04:17:59.594Z,100061.67
2022-10-02T04:20:52.432Z,100062.16
2022-10-02T04:23:47.954Z,100063.02
2022-10-02T04:26:40.844Z,100070.91
2022-10-02T04:29:38.328Z,100074.29
2022-10-02T04:32:30.921Z,100079.02
2022-10-02T04:35:28.289Z,100085.92
2022-10-02T04:38:33.545Z,100092.83
2022-10-02T04:41:39.762Z,100096.77
2022-10-02T04:44:44.012Z,100097.69
2022-10-02T04:47:47.230Z,100101.71
2022-10-02T04:50:46.429Z,100104.33
2022-10-02T04:53:53.971Z,100104.94
2022-10-02T04:57:09.493Z,100114.42
2022-10-02T05:00:10.726Z,100119.71
2022-10-02T05:03:27.906Z,100121.58
2022-10-02T05:06:30.472Z,100125.48
2022-10-02T05:09:28.835Z,100129.84
2022-10-02T05:12:41.205Z,100132.13
2022-10-02T05:16:01.667Z,100133.04
2022-10-02T05:19:12.792Z,100135.70
2022-10-02T05:22:46.474Z,100133.86
2022-10-02T05:26:00.302Z,100137.55
2022-10-02T05:29:17.099Z,100138.84
2022-10-02T05:32:24.693Z,100141.33
2022-10-02T05:35:31.332Z,100142.88
2022-10-02T05:38:38.289Z,100151.04
2022-10-02T05:41:36.930Z,100154.69
2022-10-02T05:44:28.522Z,100157.70
2022-10-02T05:47:22.503Z,100162.83
2022-10-02T05:50:16.700Z,100168.13
2022-10-02T05:53:15.483Z,100167.30
2022-10-02T05:56:09.083Z,100169.67
2022-10-02T05:59:02.811Z,100173.86
2022-10-02T06:01:53.867Z,100176.50
2022-10-02T06:04:53.773Z,100181.42
2022-10-02T06:07:45.185Z,100187.14
2022-10-02T06:10:40.782Z,100188.12
2022-10-02T06:13:35.042Z,100191.44
2022-10-02T06:16:30.083Z,100186.74
2022-10-02T06:19:23.470Z,100189.38
2022-10-02T06:22:15.928Z,100187.45
2022-10-02T06:25:09.103Z,100191.48
2022-10-02T06:28:02.668Z,100197.30
2022-10-02T06:30:56.862Z,100195.70
2022-10-02T06:33:46.906Z,100199.77
2022-10-02T06:36:49.569Z,100199.94
2022-10-02T06:40:02.293Z,100205.40
2022-10-02T06:42:58.215Z,100201.70
2022-10-02T06:45:56.008Z,100196.93
2022-10-02T06:48:52.423Z,100196.97
2022-10-02T06:51:51.467Z,100195.23
2022-10-02T06:55:04.477Z,100195.80
2022-10-02T06:58:08.376Z,100198.73
2022-10-02T07:01:05.889Z,100199.10
2022-10-02T07:04:11.818Z,100196.92
2022-10-02T07:07:24.709Z,100201.11
2022-10-02T07:10:22.204Z,100202.35
2022-10-02T07:13:40.874Z,100204.08
2022-10-02T07:16:47.046Z,100201.73
2022-10-02T07:19:57.647Z,100206.52
2022-10-02T07:22:59.796Z,100207.49
2022-10-02T07:26:03.177Z,100212.63
2022-10-02T07:28:57.367Z,100210.90
2022-10-02T07:31:56.921Z,100216.20
2022-10-02T07:34:53.374Z,100215.88
2022-10-02T07:37:49.078Z,100220.64
2022-10-02T07:40:46.712Z,100218.23
2022-10-02T07:43:45.871Z,100222.83
2022-10-02T07:46:43.005Z,100226.23
2022-10-02T07:49:42.917Z,100225.98
2022-10-02T07:52:39.225Z,100228.90
2022-10-02T07:55:29.505Z,100228.69
2022-10-02T07:58:30.603Z,100231.40
2022-10-02T08:01:24.748Z,100236.63
2022-10-02T08:04:18.582Z,100239.00
2022-10-02T08:07:08.601Z,100236.17
2022-10-02T08:09:59.057Z,100237.36
2022-10-02T08:12:55.378Z,100231.44
2022-10-02T08:15:46.847Z,100228.20
2022-10-02T08:18:38.578Z,100230.91
2022-10-02T08:21:30.389Z,100230.06
2022-10-02T08:24:23.493Z,100229.31
2022-10-02T08:27:16.685Z,100226.35
2022-10-02T08:30:11.693Z,100226.60
2022-10-02T08:33:01.839Z,100230.20
2022-10-02T08:36:09.097Z,100231.70
2022-10-02T08:39:05.009Z,100231.23
2022-10-02T08:42:39.393Z,100230.74
2022-10-02T08:45:53.807Z,100230.63
2022-10-02T08:49:39.229Z,100233.83
2022-10-02T08:53:16.631Z,100232.59
2022-10-02T08:56:20.245Z,100229.05
2022-10-02T09:00:00.676Z,100231.57
2022-10-02T09:03:38.597Z,100228.86
2022-10-02T09:07:28.802Z,100226.42
2022-10-02T09:10:52.016Z,100226.02
2022-10-02T09:14:10.018Z,100226.71
2022-10-02T09:17:19.747Z,100221.91
2022-10-02T09:20:48.671Z,100221.54
2022-10-02T09:24:09.276Z,100222.73
2022-10-02T09:27:38.725Z,100222.40
2022-10-02T09:31:06.514Z,100224.70
2022-10-02T09:34:29.237Z,100221.83
2022-10-02T09:37:40.705Z,100222.14
2022-10-02T09:41:13.179Z,100226.27
2022-10-02T09:44:45.511Z,100225.31
2022-10-02T09:48:29.744Z,100228.95
2022-10-02T09:52:22.974Z,100228.59
2022-10-02T09:56:06.357Z,100223.45
2022-10-02T09:59:41.701Z,100223.40
2022-10-02T10:03:26.557Z,100225.24
2022-10-02T10:06:57.608Z,100226.80
2022-10-02T10:10:11.772Z,100222.36
2022-10-02T10:13:34.830Z,100225.77
2022-10-02T10:16:54.392Z,100227.32
2022-10-02T10:20:23.712Z,100224.49
2022-10-02T10:23:35.902Z,100222.39
2022-10-02T10:27:19.076Z,100223.06
2022-10-02T10:30:51.200Z,100223.59
2022-10-02T10:34:12.119Z,100224.11
2022-10-02T10:37:20.701Z,100225.55
2022-10-02T10:40:25.150Z,100224.29
2022-10-02T10:44:07.659Z,100223.72
2022-10-02T10:47:30.727Z,100224.86
2022-10-02T10:50:50.237Z,100232.59
2022-10-02T10:54:09.590Z,100231.85
2022-10-02T10:57:03.885Z,100229.84
2022-10-02T11:00:18.126Z,100232.30
2022-10-02T11:04:00.032Z,100227.48
2022-10-02T11:07:22.899Z,100229.80
2022-10-02T11:10:29.906Z,100228.20
2022-10-02T11:13:43.688Z,100226.30
2022-10-02T11:17:01.500Z,100221.98
2022-10-02T11:20:14.890Z,100222.59
2022-10-02T11:23:31.076Z,100218.77
2022-10-02T11:26:55.833Z,100218.27
2022-10-02T11:30:05.054Z,100213.09
2022-10-02T11:33:26.557Z,100211.16
2022-10-02T11:36:41.108Z,100214.03
2022-10-02T11:40:00.402Z,100212.27
2022-10-02T11:43:02.859Z,100207.79
2022-10-02T11:46:12.531Z,100202.94
2022-10-02T11:49:26.521Z,100202.05
2022-10-02T11:53:04.043Z,100201.20
2022-10-02T11:56:05.715Z,100199.31
2022-10-02T11:59:07.627Z,100200.86
2022-10-02T12:02:01.134Z,100204.32
2022-10-02T12:05:03.917Z,100206.08
2022-10-02T12:08:01.034Z,100206.20
2022-10-02T12:10:55.344Z,100205.58
2022-10-02T12:14:02.702Z,100201.80
2022-10-02T12:17:06.336Z,100201.00
2022-10-02T12:20:22.940Z,100202.02
2022-10-02T12:23:42.538Z,100197.59
2022-10-02T12:26:59.073Z,100196.03
2022-10-02T12:30:09.555Z,100194.52
2022-10-02T12:33:18.287Z,100192.14
2022-10-02T12:36:33.568Z,100193.01
2022-10-02T12:39:35.261Z,100192.98
2022-10-02T12:43:34.082Z,100192.67
2022-10-02T12:46:37.871Z,100197.80
2022-10-02T12:49:36.673Z,100193.33
2022-10-02T12:53:20.335Z,100194.45
2022-10-02T12:56:48.619Z,100193.41
2022-10-02T12:59:42.121Z,100186.30
2022-10-02T13:03:00.881Z,100189.92
2022-10-02T13:06:46.037Z,100187.77
2022-10-02T13:09:44.193Z,100174.50
2022-10-02T13:12:50.500Z,100171.45
2022-10-02T13:15:45.828Z,100164.34
2022-10-02T13:18:46.572Z,100155.52
2022-10-02T13:21:48.118Z,100151.38
2022-10-02T13:24:49.856Z,100151.63
2022-10-02T13:27:48.954Z,100141.54
2022-10-02T13:30:41.103Z,100145.68
2022-10-02T13:33:52.455Z,100139.43
2022-10-02T13:36:55.187Z,100144.84
2022-10-02T13:40:17.597Z,100133.46
2022-10-02T13:43:49.643Z,100128.56
2022-10-02T13:47:23.650Z,100129.88
2022-10-02T13:50:23.924Z,100126.52
2022-10-02T13:53:30.905Z,100119.94
2022-10-02T13:56:38.719Z,100122.77
2022-10-02T13:59:47.398Z,100121.73
2022-10-02T14:02:50.877Z,100119.55
2022-10-02T14:05:45.534Z,100122.40
2022-10-02T14:08:53.719Z,100118.94
2022-10-02T14:11:55.753Z,100116.71
2022-10-02T14:15:06.318Z,100118.14
2022-10-02T14:18:34.749Z,100111.31
2022-10-02T14:21:30.771Z,100117.54
2022-10-02T14:25:00.491Z,100114.68
2022-10-02T14:28:33.226Z,100110.12
2022-10-02T14:31:50.379Z,100110.55
2022-10-02T14:34:57.681Z,100109.08
2022-10-02T14:38:34.357Z,100104.35
2022-10-02T14:41:47.142Z,100102.55
2022-10-02T14:45:04.644Z,100101.38
2022-10-02T14:48:10.771Z,100103.14
2022-10-02T14:51:21.890Z,100100.95
2022-10-02T14:54:34.786Z,100103.98
2022-10-02T14:57:36.545Z,100106.79
2022-10-02T15:00:26.964Z,100101.85
2022-10-02T15:03:31.661Z,100100.58
2022-10-02T15:06:50.493Z,100100.90
2022-10-02T15:09:56.917Z,100099.13
2022-10-02T15:12:50.505Z,100096.21
2022-10-02T15:15:43.131Z,100098.51
2022-10-02T15:18:41.412Z,100098.67
2022-10-02T15:21:33.803Z,100102.55
2022-10-02T15:24:33.282Z,100099.88
2022-10-02T15:27:28.806Z,100101.29
2022-10-02T15:30:21.032Z,100101.31
2022-10-02T15:33:18.955Z,100101.88
2022-10-02T15:36:23.858Z,100109.34
2022-10-02T15:39:39.208Z,100110.53
2022-10-02T15:42:49.776Z,100107.59
2022-10-02T15:46:02.819Z,100107.17
2022-10-02T15:49:06.537Z,100103.78
2022-10-02T15:52:02.898Z,100101.79
2022-10-02T15:55:00.678Z,100101.61
2022-10-02T15:57:59.724Z,100101.84
2022-10-02T16:01:12.781Z,100100.08
2022-10-02T16:04:08.367Z,100097.45
2022-10-02T16:07:51.010Z,100099.52
2022-10-02T16:10:57.424Z,100097.95
2022-10-02T16:13:53.625Z,100098.64
2022-10-02T16:17:23.419Z,100100.55
2022-10-02T16:20:59.076Z,100103.02
2022-10-02T16:24:02.841Z,100109.73
2022-10-02T16:27:19.936Z,100113.70
2022-10-02T16:30:12.895Z,100116.25
2022-10-02T16:33:20.857Z,100110.99
2022-10-02T16:36:33.034Z,100115.52
2022-10-02T16:39:45.732Z,100117.24
2022-10-02T16:42:50.533Z,100117.29
2022-10-02T16:45:59.257Z,100114.55
2022-10-02T16:48:53.068Z,100115.58
2022-10-02T16:51:50.944Z,100114.16
2022-10-02T16:54:46.584Z,100128.98
2022-10-02T16:57:54.753Z,100175.25
2022-10-02T17:00:53.120Z,100177.95
2022-10-02T17:03:46.317Z,100181.24
2022-10-02T17:06:39.991Z,100169.90
2022-10-02T17:09:38.755Z,100166.34
2022-10-02T17:12:40.463Z,100172.55
2022-10-02T17:15:38.452Z,100170.64
2022-10-02T17:18:37.398Z,100168.14
2022-10-02T17:21:31.438Z,100172.21
2022-10-02T17:24:31.598Z,100171.58
2022-10-02T17:27:36.409Z,100182.70
2022-10-02T17:30:28.346Z,100185.75
2022-10-02T17:33:21.676Z,100185.14
2022-10-02T17:36:18.988Z,100190.89
2022-10-02T17:39:21.130Z,100197.63
2022-10-02T17:42:18.957Z,100207.98
2022-10-02T17:45:28.505Z,100207.91
2022-10-02T17:48:38.126Z,100204.95
2022-10-02T17:51:52.243Z,100202.11
2022-10-02T17:55:10.724Z,100194.71
2022-10-02T17:58:06.733Z,100190.23
2022-10-02T18:01:06.515Z,100190.27
2022-10-02T18:04:07.273Z,100180.86
2022-10-02T18:07:09.453Z,100188.30
2022-10-02T18:10:10.011Z,100180.66
2022-10-02T18:13:20.824Z,100178.30
2022-10-02T18:16:31.962Z,100190.23
2022-10-02T18:19:30.457Z,100189.70
2022-10-02T18:22:44.846Z,100186.83
2022-10-02T18:25:48.651Z,100179.70
2022-10-02T18:29:10.036Z,100185.27
2022-10-02T18:32:21.152Z,100182.59
2022-10-02T18:35:47.554Z,100184.77
2022-10-02T18:38:52.464Z,100190.52
2022-10-02T18:41:55.958Z,100191.76
2022-10-02T18:44:53.851Z,100192.55
2022-10-02T18:47:49.219Z,100191.51
2022-10-02T18:50:56.418Z,100195.05
2022-10-02T18:54:06.173Z,100196.11
2022-10-02T18:57:09.558Z,100200.97
2022-10-02T19:00:12.985Z,100199.95
2022-10-02T19:03:19.764Z,100199.04
2022-10-02T19:06:14.138Z,100205.50
2022-10-02T19:09:19.482Z,100209.08
2022-10-02T19:12:23.819Z,100211.08
2022-10-02T19:15:21.547Z,100213.52
2022-10-02T19:18:19.325Z,100210.56
2022-10-02T19:21:10.137Z,100213.27
2022-10-02T19:24:04.535Z,100215.58
2022-10-02T19:26:57.056Z,100216.70
2022-10-02T19:29:49.681Z,100215.88
2022-10-02T19:32:41.093Z,100218.01
2022-10-02T19:35:33.188Z,100219.58
2022-10-02T19:38:30.145Z,100219.45
2022-10-02T19:41:21.359Z,100220.36
2022-10-02T19:44:24.569Z,100222.58
2022-10-02T19:47:19.833Z,100222.83
2022-10-02T19:50:21.512Z,100218.31
2022-10-02T19:53:23.251Z,100219.33
2022-10-02T19:56:15.949Z,100216.55
2022-10-02T19:59:10.716Z,100218.84
2022-10-02T20:02:03.358Z,100220.17
2022-10-02T20:04:55.543Z,100218.44
2022-10-02T20:07:46.124Z,100218.28
2022-10-02T20:10:38.106Z,100218.54
2022-10-02T20:13:36.942Z,100215.11
2022-10-02T20:16:46.102Z,100213.60
2022-10-02T20:19:41.045Z,100208.71
2022-10-02T20:22:33.867Z,100207.30
2022-10-02T20:25:28.361Z,100206.82
2022-10-02T20:28:21.211Z,100209.21
2022-10-02T20:31:16.202Z,100207.45
2022-10-02T20:34:12.398Z,100205.73
2022-10-02T20:37:05.511Z,100207.00
2022-10-02T20:40:02.580Z,100203.02
2022-10-02T20:42:58.442Z,100203.76
2022-10-02T20:45:59.299Z,100202.90
2022-10-02T20:49:17.133Z,100199.00
2022-10-02T20:52:34.244Z,100201.63
2022-10-02T20:55:29.709Z,100200.06
2022-10-02T20:58:40.826Z,100202.52
2022-10-02T21:01:37.381Z,100204.21
2022-10-02T21:05:02.570Z,100198.70
2022-10-02T21:08:17.532Z,100203.06
2022-10-02T21:11:25.224Z,100201.09
2022-10-02T21:14:29.079Z,100197.77
2022-10-02T21:17:50.067Z,100194.39
2022-10-02T21:21:33.874Z,100190.86
2022-10-02T21:25:11.457Z,100191.32
2022-10-02T21:28:32.473Z,100191.98
2022-10-02T21:32:04.415Z,100196.75
2022-10-02T21:35:07.479Z,100190.48
2022-10-02T21:38:31.795Z,100189.94
2022-10-02T21:41:48.783Z,100188.55
2022-10-02T21:45:13.386Z,100188.67
2022-10-02T21:48:55.606Z,100187.60
2022-10-02T21:52:25.542Z,100188.13
2022-10-02T21:55:51.410Z,100188.35
2022-10-02T21:59:24.343Z,100194.92
2022-10-02T22:03:09.828Z,100195.41
2022-10-02T22:06:36.776Z,100194.80
2022-10-02T22:09:41.970Z,100191.72
2022-10-02T22:12:45.609Z,100189.67
2022-10-02T22:15:43.674Z,100189.01
2022-10-02T22:18:43.627Z,100186.66
2022-10-02T22:21:59.677Z,100189.17
2022-10-02T22:25:03.285Z,100190.05
2022-10-02T22:28:27.310Z,100190.41
2022-10-02T22:31:45.874Z,100180.35
2022-10-02T22:34:40.295Z,100173.94
2022-10-02T22:37:44.197Z,100173.19
2022-10-02T22:40:47.965Z,100170.56
2022-10-02T22:43:46.955Z,100168.46
2022-10-02T22:46:43.880Z,100170.57
2022-10-02T22:49:36.999Z,100166.90
2022-10-02T22:52:30.240Z,100169.58
2022-10-02T22:55:22.924Z,100169.54
2022-10-02T22:58:15.849Z,100172.99
2022-10-02T23:01:12.762Z,100173.23
2022-10-02T23:04:06.641Z,100175.91
2022-10-02T23:07:01.674Z,100172.80
2022-10-02T23:09:57.025Z,100174.73
2022-10-02T23:12:56.794Z,100175.19
2022-10-02T23:16:01.120Z,100176.58
2022-10-02T23:18:54.455Z,100180.52
2022-10-02T23:21:47.148Z,100184.84
2022-10-02T23:24:43.363Z,100190.39
2022-10-02T23:27:38.785Z,100195.20
2022-10-02T23:30:29.229Z,100190.52
2022-10-02T23:33:24.983Z,100183.88
2022-10-02T23:36:24.178Z,100179.63
2022-10-02T23:39:19.200Z,100179.11
2022-10-02T23:42:14.325Z,100181.61
2022-10-02T23:45:09.686Z,100182.35
2022-10-02T23:48:02.320Z,100184.98
2022-10-02T23:50:58.974Z,100179.85
2022-10-02T23:54:23.005Z,100179.63
2022-10-02T23:57:49.777Z,100177.14
